Thunder radar more information blitzortung!


Rain radar more information rain snow radar


METAR-Meldungen aus der Umgebung

Warning: A non-numeric value encountered in /mnt/web301/a1/70/5400070/htdocs/weather28/metar/metarDisplay.php on line 166
   
EBBR - Brussels International Airport, Belgium
Entfernung von der Station bis: W 14 km
Aktualisierung: 19-03-2019 02:50
Klar  
Klar  
   Wind: Süden 9.3 km/h
Wind: Süden 9.3 km/h
Temperatur: 0°C
Gefühlt: -3°C
Taupunkt: -1°C
Luftfeuchte: 93%
Luftdruck: 1025 hPa
Sichtbarkeit: More than 10 km
Bewölkung: Klar
EBBR 190150Z 19005KT CAVOK 00/M01 Q1025 NOSIG
EBBE - Beauvechain (Bevekom), Belgium
Entfernung von der Station bis: SSO 17 km
Aktualisierung: 19-03-2019 02:25
leicht bewölkt  
leicht bewölkt  
   Wind: variiert 1.9 km/h
Wind: variiert 1.9 km/h
Temperatur: 3°C
Taupunkt: 0°C
Luftfeuchte: 81%
Luftdruck: 1025 hPa
Bewölkt: leicht bewölkt
Sichtbarkeit: More than 10 km
Bewölkung: leicht bewölkt 3200 ft
EBBE 190125Z AUTO VRB01KT 9999 FEW032/// 03/M00 Q1025 BLU
EBDT - Schaffen, Belgium
Entfernung von der Station bis: ONO 29 km
Aktualisierung: 18-03-2019 13:25
Nicht aktuell
Stark bewölkt  
Stark bewölkt  
   Wind: NW 22.2 km/h
Wind: NW 22.2 km/h
Temperatur: 8°C
Gefühlt: 4°C
Taupunkt: -2°C
Luftfeuchte: 50%
Luftdruck: 1019 hPa
Bewölkt: Stark bewölkt
Sichtbarkeit: More than 10 km
Bewölkung: Teilweise bewölkt 4500 ft,
Stark bewölkt 6500 ft
EBDT 181225Z AUTO 32012KT 9999 SCT045/// BKN065/// 08/M02 Q1019 BLU
EBAW - Antwerp/Deurne, Belgium
Entfernung von der Station bis: NNW 38 km
Aktualisierung: 19-03-2019 02:50
Teilweise bewölkt  
Teilweise bewölkt  
   Wind: variiert 3.7 km/h
Wind: variiert 3.7 km/h
Temperatur: 1°C
Taupunkt: 0°C
Luftfeuchte: 93%
Luftdruck: 1025 hPa
Bewölkt: Teilweise bewölkt
Sichtbarkeit: More than 10 km
Bewölkung: Teilweise bewölkt 1900 ft
EBAW 190150Z AUTO VRB02KT 9999 // SCT019/// 01/M00 Q1025
EBCI - Charleroi/Gosselies, Belgium
Entfernung von der Station bis: SSW 51 km
Aktualisierung: 19-03-2019 02:50
Nebel, leicht bewölkt  
Nebel, leicht bewölkt  
   Wind: Süden 5.6 km/h
Wind: Süden 5.6 km/h
Temperatur: 1°C
Gefühlt: -1°C
Taupunkt: 0°C
Luftfeuchte: 93%
Luftdruck: 1025 hPa
Bewölkt: leicht bewölkt
Sichtbarkeit: 4 km
Bewölkung: leicht bewölkt 4500 ft
EBCI 190150Z 17003KT 3500 BR FEW045 01/00 Q1025 NOSIG
EBLG - Bierset/Liege, Belgium
Entfernung von der Station bis: OSO 60 km
Aktualisierung: 19-03-2019 02:50
Nebel, leicht bewölkt  
Nebel, leicht bewölkt  
   Wind: Süden 5.6 km/h
Wind: Süden 5.6 km/h
Temperatur: 1°C
Gefühlt: -1°C
Taupunkt: 0°C
Luftfeuchte: 93%
Luftdruck: 1025 hPa
Bewölkt: leicht bewölkt
Sichtbarkeit: 5 km
Bewölkung: leicht bewölkt 4000 ft
EBLG 190150Z 17003KT 130V230 5000 BR FEW040 01/M00 Q1025 TEMPO 3000

Script entwickelt von  Saratoga-weather.org Angepasst für das Template von  Weerstation Leuven